Time;durP1;ratioP1;P1;durP2;ratioP2;P2;SDS_P1;SDS_P2;PMS_P1;PMS_P2;Temp;Humidity;BMP_temperature;BMP_pressure;BME280_temperature;BME280_humidity;BME280_pressure;Samples;Min_cycle;Max_cycle;Signal;HPM_P1;HPM_P2
2023/01/06 00:00:29;;;;;;;12.98;4.10;;;16.50;61.00;;;;;;5068095;28;20212;-76
2023/01/06 00:02:55;;;;;;;20.75;4.75;;;16.60;61.20;;;;;;5067090;28;20028;-76
2023/01/06 00:05:21;;;;;;;13.88;3.60;;;16.60;60.90;;;;;;5066830;28;20099;-75
2023/01/06 00:07:51;;;;;;;17.02;3.60;;;16.60;60.80;;;;;;5067812;28;20028;-75
2023/01/06 00:10:17;;;;;;;17.10;3.65;;;16.60;60.80;;;;;;5067995;28;20017;-74
2023/01/06 00:12:44;;;;;;;10.88;3.60;;;16.70;60.60;;;;;;5067872;28;20025;-75
2023/01/06 00:15:10;;;;;;;15.00;2.95;;;16.80;60.30;;;;;;5068145;28;20017;-77
2023/01/06 00:17:36;;;;;;;13.18;3.88;;;16.80;60.30;;;;;;5069369;28;20027;-73
2023/01/06 00:20:03;;;;;;;9.45;3.65;;;16.80;60.10;;;;;;5069960;28;20021;-76
2023/01/06 00:22:29;;;;;;;13.60;4.30;;;16.80;59.90;;;;;;5069432;28;20029;-76
2023/01/06 00:24:55;;;;;;;13.18;4.22;;;16.80;60.30;;;;;;5069521;28;20025;-76
2023/01/06 00:27:21;;;;;;;19.17;4.90;;;16.70;60.20;;;;;;5068608;28;20056;-73
2023/01/06 00:29:48;;;;;;;20.85;3.33;;;16.70;60.30;;;;;;5070389;28;20082;-73
2023/01/06 00:32:14;;;;;;;12.02;2.90;;;16.70;60.30;;;;;;5070771;28;20017;-73
2023/01/06 00:34:40;;;;;;;14.00;4.47;;;16.70;60.30;;;;;;5071213;28;20028;-72
2023/01/06 00:37:06;;;;;;;13.15;3.70;;;16.70;60.20;;;;;;5073309;28;20021;-74
2023/01/06 00:39:31;;;;;;;8.85;2.90;;;16.70;60.30;;;;;;5072301;28;20084;-74
2023/01/06 00:42:03;;;;;;;16.67;4.40;;;16.70;60.20;;;;;;5071512;28;20025;-70
2023/01/06 00:44:34;;;;;;;11.43;4.03;;;16.60;60.10;;;;;;5073170;28;20032;-69
2023/01/06 00:46:59;;;;;;;13.25;3.17;;;16.60;60.00;;;;;;5072462;28;20020;-69
2023/01/06 00:49:26;;;;;;;10.88;3.03;;;16.60;60.10;;;;;;5072809;28;20027;-72
2023/01/06 00:51:52;;;;;;;9.40;3.08;;;16.60;60.00;;;;;;5073090;28;20020;-72
2023/01/06 00:54:18;;;;;;;14.00;3.10;;;16.60;60.00;;;;;;5071915;28;20320;-70
2023/01/06 00:56:46;;;;;;;10.38;2.92;;;16.50;60.10;;;;;;5071554;28;20021;-76
2023/01/06 00:59:18;;;;;;;12.98;4.72;;;16.60;59.90;;;;;;5072120;28;20031;-71
2023/01/06 01:01:46;;;;;;;12.10;3.53;;;16.60;60.00;;;;;;5071273;28;20020;-74
2023/01/06 01:04:12;;;;;;;11.80;2.97;;;16.50;60.00;;;;;;5070883;28;20052;-71
2023/01/06 01:06:41;;;;;;;13.90;2.72;;;16.50;60.00;;;;;;5070409;28;20020;-77
2023/01/06 01:09:07;;;;;;;11.43;2.95;;;16.50;60.10;;;;;;5070855;28;20023;-72
2023/01/06 01:14:20;;;;;;;12.95;3.45;;;16.50;60.10;;;;;;5072682;28;20012;-74
2023/01/06 01:16:46;;;;;;;11.73;3.25;;;16.50;60.10;;;;;;5072360;28;20051;-69
2023/01/06 01:19:13;;;;;;;10.38;2.90;;;16.40;59.80;;;;;;5071609;28;20029;-75
2023/01/06 01:21:39;;;;;;;11.30;2.67;;;16.40;60.10;;;;;;5071405;28;20017;-73
2023/01/06 01:24:05;;;;;;;8.60;3.80;;;16.50;60.00;;;;;;5070295;28;20016;-74
2023/01/06 01:26:31;;;;;;;15.18;3.22;;;16.40;60.00;;;;;;5071264;28;20048;-70
2023/01/06 01:28:56;;;;;;;11.13;2.65;;;16.40;60.10;;;;;;5071589;28;20017;-72
2023/01/06 01:31:22;;;;;;;11.82;2.92;;;16.40;60.30;;;;;;5071084;28;20025;-75
2023/01/06 01:33:48;;;;;;;15.75;3.42;;;16.40;60.20;;;;;;5072279;28;20024;-72
2023/01/06 01:36:16;;;;;;;14.73;2.65;;;16.40;60.20;;;;;;5070960;28;20072;-75
2023/01/06 01:38:42;;;;;;;12.13;3.17;;;16.40;60.20;;;;;;5069165;28;20021;-75
2023/01/06 01:41:13;;;;;;;10.40;3.08;;;16.40;60.00;;;;;;5066972;28;20021;-75
2023/01/06 01:43:48;;;;;;;9.48;3.38;;;16.40;60.40;;;;;;5066791;28;20024;-76
2023/01/06 01:46:19;;;;;;;9.85;2.90;;;16.40;60.10;;;;;;5066409;28;20063;-77
2023/01/06 01:48:44;;;;;;;10.55;2.65;;;16.40;60.50;;;;;;5066676;28;20023;-77
2023/01/06 01:51:15;;;;;;;10.82;2.80;;;16.50;60.40;;;;;;5066507;28;20021;-75
2023/01/06 01:53:45;;;;;;;11.32;3.63;;;16.60;60.20;;;;;;5066387;28;20036;-76
2023/01/06 01:56:16;;;;;;;14.20;2.70;;;16.60;60.20;;;;;;5065922;28;20024;-76
2023/01/06 01:58:48;;;;;;;10.98;3.13;;;16.60;60.00;;;;;;5068514;28;20021;-76
2023/01/06 02:01:13;;;;;;;14.07;3.38;;;16.70;59.90;;;;;;5070307;28;20025;-77
2023/01/06 02:03:41;;;;;;;11.95;2.97;;;16.70;59.80;;;;;;5070882;28;20024;-76
2023/01/06 02:06:23;;;;;;;13.13;3.28;;;16.60;59.60;;;;;;5071380;28;20020;-74
2023/01/06 02:09:00;;;;;;;13.80;2.95;;;16.60;59.50;;;;;;5071065;28;20063;-74
2023/01/06 02:11:28;;;;;;;14.63;3.30;;;16.60;59.60;;;;;;5072063;28;20017;-76
2023/01/06 02:14:25;;;;;;;8.90;2.67;;;16.60;59.70;;;;;;5072134;28;20021;-69
2023/01/06 02:17:03;;;;;;;12.75;3.13;;;16.60;59.80;;;;;;5072150;28;20048;-69
2023/01/06 02:19:48;;;;;;;12.60;3.45;;;16.60;59.70;;;;;;5072010;28;20024;-69
2023/01/06 02:22:55;;;;;;;12.35;2.97;;;16.60;59.80;;;;;;5072044;28;20021;-68
2023/01/06 02:25:45;;;;;;;9.80;2.88;;;16.50;59.60;;;;;;5072275;28;20024;-69
2023/01/06 02:28:20;;;;;;;19.58;3.25;;;16.50;59.60;;;;;;5071660;28;20072;-70
2023/01/06 02:31:20;;;;;;;12.77;3.88;;;16.50;59.60;;;;;;5071766;28;20088;-69
2023/01/06 02:34:01;;;;;;;11.52;2.90;;;16.50;59.70;;;;;;5071764;28;20336;-68
2023/01/06 02:36:36;;;;;;;8.50;2.33;;;16.50;59.80;;;;;;5071383;28;20023;-73
2023/01/06 02:39:49;;;;;;;7.25;2.22;;;16.50;59.70;;;;;;5071321;28;20013;-72
2023/01/06 02:42:39;;;;;;;6.85;2.30;;;16.40;59.60;;;;;;5030243;28;20028;-71
2023/01/06 02:45:20;;;;;;;15.10;3.65;;;16.40;59.60;;;;;;5030297;28;20022;-70
2023/01/06 02:47:54;;;;;;;8.57;2.88;;;16.40;60.00;;;;;;5059800;28;20040;-72
2023/01/06 02:50:29;;;;;;;9.50;2.53;;;16.40;60.00;;;;;;5071635;28;20300;-71
2023/01/06 02:53:02;;;;;;;11.65;3.00;;;16.40;60.00;;;;;;5071222;28;20025;-72
2023/01/06 02:55:43;;;;;;;9.25;3.65;;;16.40;60.00;;;;;;5070356;28;20020;-74
2023/01/06 02:58:25;;;;;;;10.43;2.13;;;16.40;59.90;;;;;;5070383;28;20070;-70
2023/01/06 03:01:13;;;;;;;10.13;3.10;;;16.30;60.00;;;;;;5070672;28;20016;-70
2023/01/06 03:03:43;;;;;;;5.25;2.20;;;16.30;59.80;;;;;;5071075;28;20059;-73
2023/01/06 03:06:17;;;;;;;7.15;2.30;;;16.30;59.80;;;;;;5070029;28;20051;-74
2023/01/06 03:08:45;;;;;;;7.95;2.65;;;16.30;59.90;;;;;;5066243;28;20039;-75
2023/01/06 03:11:11;;;;;;;13.60;3.08;;;16.30;60.10;;;;;;5065447;28;20263;-76
2023/01/06 03:14:05;;;;;;;8.05;2.33;;;16.30;60.10;;;;;;5065037;28;20017;-77
2023/01/06 03:16:31;;;;;;;11.35;3.33;;;16.30;60.50;;;;;;5065318;28;20013;-76
2023/01/06 03:18:57;;;;;;;9.82;2.33;;;16.40;60.40;;;;;;5064305;28;20013;-76
2023/01/06 03:21:28;;;;;;;6.63;2.20;;;16.40;60.30;;;;;;5065249;28;20024;-76
2023/01/06 03:23:54;;;;;;;9.32;2.03;;;16.50;60.20;;;;;;5065636;28;20067;-74
2023/01/06 03:26:20;;;;;;;5.25;2.22;;;16.50;60.00;;;;;;5066475;28;20053;-71
2023/01/06 03:28:46;;;;;;;7.90;3.33;;;16.60;59.90;;;;;;5072082;28;20021;-70
2023/01/06 03:31:40;;;;;;;7.35;3.15;;;16.60;59.70;;;;;;5075229;28;20236;-73
2023/01/06 03:34:23;;;;;;;6.60;2.38;;;16.60;59.70;;;;;;5074753;28;20009;-73
2023/01/06 03:37:20;;;;;;;4.97;2.22;;;16.60;59.60;;;;;;5075260;28;20036;-68
2023/01/06 03:39:56;;;;;;;6.55;1.80;;;16.60;59.70;;;;;;5075534;28;20076;-69
2023/01/06 03:45:31;;;;;;;6.18;1.83;;;16.50;59.70;;;;;;5075377;28;20070;-70
2023/01/06 03:48:28;;;;;;;5.25;2.58;;;16.50;59.70;;;;;;5075722;28;20020;-68
2023/01/06 03:51:13;;;;;;;3.28;1.48;;;16.50;59.80;;;;;;5075647;28;20085;-69
2023/01/06 03:54:03;;;;;;;9.38;2.55;;;16.50;59.70;;;;;;5075547;28;20108;-72
2023/01/06 03:56:29;;;;;;;11.18;3.17;;;16.50;59.80;;;;;;5075711;28;20178;-70
2023/01/06 03:58:59;;;;;;;7.38;2.35;;;16.50;59.80;;;;;;5075131;28;20043;-70
2023/01/06 04:01:26;;;;;;;9.13;2.13;;;16.40;59.70;;;;;;5075070;28;20017;-68
2023/01/06 04:03:53;;;;;;;7.20;1.67;;;16.40;59.70;;;;;;5075134;28;20080;-68
2023/01/06 04:06:19;;;;;;;6.10;1.75;;;16.40;59.70;;;;;;5074948;28;20021;-73
2023/01/06 04:08:45;;;;;;;7.13;2.00;;;16.30;59.70;;;;;;5075158;28;20027;-68
2023/01/06 04:13:55;;;;;;;9.75;3.58;;;16.30;59.70;;;;;;5075155;28;20055;-71
2023/01/06 04:16:21;;;;;;;6.88;2.55;;;16.30;59.70;;;;;;5073550;28;20013;-69
2023/01/06 04:18:47;;;;;;;7.38;2.33;;;16.30;59.70;;;;;;5075074;28;20059;-68
2023/01/06 04:21:13;;;;;;;5.18;1.70;;;16.30;59.70;;;;;;5074501;28;20324;-68
2023/01/06 04:23:38;;;;;;;6.40;2.45;;;16.30;59.70;;;;;;5074039;28;20032;-73
2023/01/06 04:26:04;;;;;;;8.05;2.22;;;16.30;59.90;;;;;;5073092;28;20016;-75
2023/01/06 04:28:30;;;;;;;7.72;2.13;;;16.30;59.90;;;;;;5071286;28;20025;-73
2023/01/06 04:31:00;;;;;;;6.10;2.08;;;16.30;60.00;;;;;;5068420;28;20047;-74
2023/01/06 04:33:27;;;;;;;9.43;2.72;;;16.30;60.10;;;;;;5069348;28;20017;-76
2023/01/06 04:35:52;;;;;;;11.35;2.53;;;16.30;60.00;;;;;;5068377;28;20013;-76
2023/01/06 04:38:18;;;;;;;6.95;1.98;;;16.30;60.10;;;;;;5069272;28;20021;-73
2023/01/06 04:40:44;;;;;;;5.10;1.58;;;16.30;60.00;;;;;;5067889;28;20381;-75
2023/01/06 04:43:15;;;;;;;7.75;2.50;;;16.30;60.10;;;;;;5070757;28;20044;-76
2023/01/06 04:45:42;;;;;;;6.30;2.05;;;16.30;60.10;;;;;;5070355;28;20021;-75
2023/01/06 04:48:09;;;;;;;8.82;1.63;;;16.30;60.20;;;;;;5071432;28;20021;-73
2023/01/06 04:50:35;;;;;;;6.38;1.95;;;16.30;60.00;;;;;;5071414;28;20055;-74
2023/01/06 04:53:01;;;;;;;4.22;1.60;;;16.30;60.00;;;;;;5071250;28;20020;-71
2023/01/06 04:55:27;;;;;;;7.00;1.80;;;16.30;60.10;;;;;;5071428;28;20017;-75
2023/01/06 04:57:53;;;;;;;7.18;2.53;;;16.30;60.00;;;;;;5068456;28;20025;-76
2023/01/06 05:00:19;;;;;;;5.28;1.88;;;16.30;60.10;;;;;;5067508;28;20044;-74
2023/01/06 05:02:45;;;;;;;4.95;1.85;;;16.40;60.30;;;;;;5067087;28;20364;-75
2023/01/06 05:05:11;;;;;;;5.93;2.65;;;16.40;60.50;;;;;;5066769;28;20320;-74
2023/01/06 05:07:37;;;;;;;5.68;1.65;;;16.40;60.60;;;;;;5067098;28;20384;-76
2023/01/06 05:10:06;;;;;;;5.28;2.17;;;16.40;60.50;;;;;;5067198;28;20021;-76
2023/01/06 05:12:33;;;;;;;6.38;2.47;;;16.50;60.50;;;;;;5067118;28;20021;-75
2023/01/06 05:14:59;;;;;;;6.38;1.60;;;16.50;60.50;;;;;;5067651;28;20016;-75
2023/01/06 05:17:25;;;;;;;4.97;2.20;;;16.50;60.30;;;;;;5069026;28;20040;-70
2023/01/06 05:19:51;;;;;;;4.30;1.67;;;16.50;60.10;;;;;;5072136;28;20080;-75
2023/01/06 05:22:17;;;;;;;4.63;1.92;;;16.60;60.00;;;;;;5071740;28;20024;-73
2023/01/06 05:24:43;;;;;;;6.22;2.08;;;16.60;60.00;;;;;;5073352;28;20029;-69
2023/01/06 05:27:09;;;;;;;6.53;2.20;;;16.50;59.80;;;;;;5072921;28;20037;-69
2023/01/06 05:29:34;;;;;;;6.15;2.22;;;16.50;59.90;;;;;;5072263;28;20063;-69
2023/01/06 05:32:00;;;;;;;8.93;1.85;;;16.50;59.90;;;;;;5073237;28;20205;-72
2023/01/06 05:34:27;;;;;;;6.57;2.35;;;16.50;60.50;;;;;;5072837;28;20024;-69
2023/01/06 05:36:54;;;;;;;10.55;2.35;;;16.50;59.90;;;;;;5073189;28;20021;-75
2023/01/06 05:39:20;;;;;;;4.25;1.40;;;16.50;59.90;;;;;;5073127;28;20027;-71
2023/01/06 05:41:46;;;;;;;6.57;2.30;;;16.50;60.00;;;;;;5073487;28;20021;-71
2023/01/06 05:44:11;;;;;;;6.10;1.80;;;16.40;60.00;;;;;;5072950;28;20031;-70
2023/01/06 05:46:37;;;;;;;4.00;1.60;;;16.40;60.00;;;;;;5072724;28;20021;-71
2023/01/06 05:49:03;;;;;;;5.82;1.88;;;16.40;59.90;;;;;;5073042;28;20021;-69
2023/01/06 05:51:29;;;;;;;6.40;1.50;;;16.40;60.00;;;;;;5072533;28;20343;-69
2023/01/06 05:53:55;;;;;;;7.13;1.40;;;16.40;60.00;;;;;;5072799;28;20083;-74
2023/01/06 05:56:21;;;;;;;3.20;1.80;;;16.40;60.00;;;;;;5072674;28;20071;-72
2023/01/06 05:58:49;;;;;;;5.20;1.33;;;16.30;60.00;;;;;;5072696;28;20027;-70
2023/01/06 06:01:26;;;;;;;5.00;1.73;;;16.40;60.00;;;;;;5072449;28;20017;-73
2023/01/06 06:03:53;;;;;;;5.80;1.63;;;16.30;60.00;;;;;;5071850;28;20343;-71
2023/01/06 06:06:20;;;;;;;4.03;1.73;;;16.30;60.00;;;;;;5072838;28;20088;-69
2023/01/06 06:08:46;;;;;;;6.55;2.80;;;16.30;60.00;;;;;;5072449;28;20042;-75
2023/01/06 06:11:14;;;;;;;4.55;2.30;;;16.30;60.00;;;;;;5073096;28;20020;-68
2023/01/06 06:13:46;;;;;;;6.20;1.57;;;16.30;60.10;;;;;;5072790;28;20324;-68
2023/01/06 06:16:14;;;;;;;5.93;2.08;;;16.30;60.10;;;;;;5071879;28;20032;-71
2023/01/06 06:18:41;;;;;;;6.75;2.05;;;16.30;60.10;;;;;;5070152;28;20189;-72
2023/01/06 06:21:15;;;;;;;7.25;1.92;;;16.30;60.20;;;;;;5067490;28;20020;-75
2023/01/06 06:23:42;;;;;;;5.45;1.98;;;16.30;60.30;;;;;;5066284;28;20021;-75
2023/01/06 06:26:09;;;;;;;5.05;1.40;;;16.30;60.60;;;;;;5066080;28;20076;-76
2023/01/06 06:28:36;;;;;;;3.35;1.40;;;16.30;60.60;;;;;;5064967;28;20016;-74
2023/01/06 06:31:06;;;;;;;6.85;1.63;;;16.30;60.50;;;;;;5064991;28;20058;-75
2023/01/06 06:33:32;;;;;;;3.13;1.40;;;16.40;60.50;;;;;;5065929;28;20017;-75
2023/01/06 06:35:58;;;;;;;5.30;2.78;;;16.40;60.40;;;;;;5067231;28;20024;-75
2023/01/06 06:38:24;;;;;;;3.03;1.25;;;16.50;60.20;;;;;;5067149;28;20031;-76
2023/01/06 06:40:50;;;;;;;2.65;1.85;;;16.50;60.00;;;;;;5065527;28;20045;-74
2023/01/06 06:43:16;;;;;;;3.97;1.67;;;16.50;59.90;;;;;;5068682;28;20016;-74
2023/01/06 06:45:46;;;;;;;8.20;2.88;;;16.60;59.80;;;;;;5069707;28;20021;-73
2023/01/06 06:48:12;;;;;;;6.18;1.88;;;16.50;59.60;;;;;;5071838;28;20020;-69
2023/01/06 06:50:38;;;;;;;3.75;1.48;;;16.50;59.70;;;;;;5071362;28;20023;-75
2023/01/06 06:53:05;;;;;;;4.20;1.95;;;16.50;59.60;;;;;;5071991;28;20020;-69
2023/01/06 06:55:32;;;;;;;6.80;1.98;;;16.50;59.70;;;;;;5072029;28;20037;-70
2023/01/06 06:57:57;;;;;;;6.00;2.20;;;16.50;59.70;;;;;;5072257;28;20021;-68
2023/01/06 07:00:24;;;;;;;3.40;1.38;;;16.50;59.70;;;;;;5070444;28;20028;-69
2023/01/06 07:02:50;;;;;;;5.97;2.17;;;16.50;59.70;;;;;;5070658;28;20021;-69
2023/01/06 07:05:16;;;;;;;3.72;1.40;;;16.50;59.80;;;;;;5071633;28;20046;-69
2023/01/06 07:07:43;;;;;;;6.03;1.70;;;16.40;59.70;;;;;;5071216;28;20051;-70
2023/01/06 07:10:13;;;;;;;4.88;1.48;;;16.40;59.80;;;;;;5070288;28;20021;-71
2023/01/06 07:12:39;;;;;;;3.45;1.42;;;16.40;59.70;;;;;;5071323;28;20073;-71
2023/01/06 07:15:05;;;;;;;5.68;1.45;;;16.40;59.80;;;;;;5071527;28;20017;-70
2023/01/06 07:17:31;;;;;;;6.43;1.55;;;16.40;59.80;;;;;;5072065;28;20024;-70
2023/01/06 07:19:57;;;;;;;5.85;1.85;;;16.40;59.90;;;;;;5070600;28;20017;-69
2023/01/06 07:22:23;;;;;;;5.95;1.50;;;16.30;59.80;;;;;;5071502;28;20021;-69
2023/01/06 07:24:48;;;;;;;3.53;1.40;;;16.40;59.90;;;;;;5071505;28;20024;-71
2023/01/06 07:27:14;;;;;;;5.07;1.92;;;16.30;59.80;;;;;;5071453;28;20056;-75
2023/01/06 07:29:40;;;;;;;4.55;1.77;;;16.30;59.80;;;;;;5071119;28;20033;-69
2023/01/06 07:32:06;;;;;;;6.40;1.77;;;16.40;59.80;;;;;;5071876;28;20028;-69
2023/01/06 07:34:31;;;;;;;4.25;1.50;;;16.30;59.90;;;;;;5069851;28;20017;-75
2023/01/06 07:36:57;;;;;;;4.55;1.30;;;16.30;59.80;;;;;;5070744;28;20021;-69
2023/01/06 07:39:23;;;;;;;4.68;1.73;;;16.30;59.80;;;;;;5067764;28;20023;-69
2023/01/06 07:41:49;;;;;;;6.82;1.50;;;16.40;59.80;;;;;;5067287;28;20021;-75
2023/01/06 07:44:15;;;;;;;4.95;1.63;;;16.30;59.80;;;;;;5064691;28;20303;-76
2023/01/06 07:46:40;;;;;;;8.32;1.63;;;16.40;59.80;;;;;;5064320;28;20320;-78
2023/01/06 07:49:06;;;;;;;3.75;1.20;;;16.40;60.00;;;;;;5064418;28;20024;-75
2023/01/06 07:51:32;;;;;;;3.58;1.45;;;16.40;60.00;;;;;;5063131;28;20017;-74
2023/01/06 07:53:58;;;;;;;5.25;1.45;;;16.50;60.10;;;;;;5064310;28;20059;-77
2023/01/06 07:56:23;;;;;;;3.67;1.20;;;16.50;60.10;;;;;;5064577;28;20073;-77
2023/01/06 07:58:49;;;;;;;5.70;1.40;;;16.50;60.60;;;;;;5064718;28;20071;-76
2023/01/06 08:01:15;;;;;;;2.70;0.90;;;16.60;59.70;;;;;;5065365;28;20021;-73
2023/01/06 08:03:41;;;;;;;4.47;1.30;;;16.70;59.60;;;;;;5068007;28;20017;-74
2023/01/06 08:06:09;;;;;;;4.45;1.58;;;16.80;59.30;;;;;;5069432;28;20025;-69
2023/01/06 08:08:39;;;;;;;9.15;1.50;;;16.80;59.10;;;;;;5070257;28;20021;-74
2023/01/06 08:11:07;;;;;;;4.00;1.60;;;16.80;58.90;;;;;;5070595;28;20100;-71
2023/01/06 08:13:33;;;;;;;2.88;1.52;;;16.80;59.00;;;;;;5071653;28;20020;-69
2023/01/06 08:16:03;;;;;;;4.40;1.63;;;16.80;58.90;;;;;;5074710;28;20072;-71
2023/01/06 08:18:28;;;;;;;7.97;1.70;;;16.80;58.80;;;;;;5074661;28;20021;-70
2023/01/06 08:21:02;;;;;;;4.45;1.42;;;16.90;58.80;;;;;;5074576;28;20055;-72
2023/01/06 08:23:29;;;;;;;4.38;2.13;;;16.90;58.90;;;;;;5074474;28;20024;-71
2023/01/06 08:26:12;;;;;;;4.03;1.75;;;16.90;58.80;;;;;;5073397;28;20044;-73
2023/01/06 08:28:39;;;;;;;2.58;1.42;;;16.90;59.00;;;;;;5073089;28;20044;-71
2023/01/06 08:31:15;;;;;;;4.30;1.50;;;16.90;59.00;;;;;;5073308;28;20013;-75
2023/01/06 08:33:41;;;;;;;4.82;1.27;;;16.90;59.10;;;;;;5072724;28;20044;-74
2023/01/06 08:36:10;;;;;;;2.25;1.10;;;16.90;59.10;;;;;;5070228;28;20100;-73
2023/01/06 08:38:36;;;;;;;3.95;1.30;;;16.90;59.10;;;;;;5072590;28;20021;-75
2023/01/06 08:41:03;;;;;;;5.15;2.05;;;16.90;59.00;;;;;;5072323;28;20020;-71
2023/01/06 08:43:30;;;;;;;3.83;1.60;;;16.90;59.00;;;;;;5071952;28;20020;-75
2023/01/06 08:46:04;;;;;;;4.88;1.63;;;16.80;59.00;;;;;;5070897;28;20083;-73
2023/01/06 08:48:31;;;;;;;2.33;1.15;;;16.80;59.00;;;;;;5071368;28;20043;-74
2023/01/06 08:51:12;;;;;;;2.55;1.25;;;16.80;59.00;;;;;;5072359;28;20016;-75
2023/01/06 08:53:38;;;;;;;5.15;1.13;;;16.80;58.90;;;;;;5071679;28;20013;-70
2023/01/06 08:56:04;;;;;;;5.10;1.20;;;16.80;58.90;;;;;;5072649;28;20068;-70
2023/01/06 08:58:30;;;;;;;3.70;1.40;;;16.80;58.90;;;;;;5071883;28;20029;-72
2023/01/06 09:00:56;;;;;;;3.13;1.48;;;16.80;58.90;;;;;;5073037;28;20025;-70
2023/01/06 09:03:21;;;;;;;5.03;1.55;;;16.70;58.90;;;;;;5073606;28;20021;-69
2023/01/06 09:05:57;;;;;;;2.65;1.38;;;16.70;58.90;;;;;;5072645;28;20053;-69
2023/01/06 09:08:24;;;;;;;6.25;1.88;;;16.70;58.90;;;;;;5072257;28;20028;-75
2023/01/06 09:10:50;;;;;;;4.45;1.20;;;16.70;59.00;;;;;;5071849;28;20021;-70
2023/01/06 09:13:16;;;;;;;3.95;1.23;;;16.70;59.00;;;;;;5073235;28;20024;-70
2023/01/06 09:15:43;;;;;;;2.53;1.30;;;16.70;59.00;;;;;;5072116;28;20247;-71
2023/01/06 09:18:10;;;;;;;3.53;1.42;;;16.70;59.00;;;;;;5073045;28;20304;-70
2023/01/06 09:20:36;;;;;;;5.30;1.20;;;16.70;59.00;;;;;;5073516;28;20031;-70
2023/01/06 09:23:03;;;;;;;1.95;1.00;;;16.70;59.00;;;;;;5072372;28;20043;-72
2023/01/06 09:25:29;;;;;;;3.80;1.17;;;16.70;59.10;;;;;;5072508;28;20025;-69
2023/01/06 09:27:54;;;;;;;2.97;1.17;;;16.70;59.00;;;;;;5073228;28;20261;-69
2023/01/06 09:30:20;;;;;;;3.85;1.35;;;16.60;59.00;;;;;;5073575;28;20047;-69
2023/01/06 09:32:46;;;;;;;3.10;1.20;;;16.60;58.90;;;;;;5073720;28;20017;-71
2023/01/06 09:35:12;;;;;;;1.70;0.95;;;16.60;58.90;;;;;;5073129;28;20024;-71
2023/01/06 09:37:38;;;;;;;2.75;1.30;;;16.60;58.90;;;;;;5073495;28;20020;-70
2023/01/06 09:40:04;;;;;;;2.53;1.15;;;16.60;58.80;;;;;;5073254;28;20047;-70
2023/01/06 09:42:30;;;;;;;3.50;1.17;;;16.60;58.90;;;;;;5072880;28;20024;-69
2023/01/06 09:45:40;;;;;;;3.60;1.27;;;16.70;58.90;;;;;;5072861;28;20067;-71
2023/01/06 09:48:14;;;;;;;4.38;1.23;;;16.60;58.80;;;;;;5070713;28;20033;-69
2023/01/06 09:50:47;;;;;;;2.70;1.10;;;16.70;58.80;;;;;;5072812;28;20013;-72
2023/01/06 09:53:21;;;;;;;2.28;1.20;;;16.70;58.90;;;;;;5071833;28;20017;-76
2023/01/06 09:55:50;;;;;;;5.03;1.45;;;16.70;58.80;;;;;;5069133;28;20051;-75
2023/01/06 09:58:20;;;;;;;3.97;1.55;;;16.70;58.90;;;;;;5066453;28;20021;-75
2023/01/06 10:00:51;;;;;;;3.70;1.00;;;16.70;58.90;;;;;;5065764;28;20044;-76
2023/01/06 10:03:25;;;;;;;3.05;1.00;;;16.80;58.90;;;;;;5064979;28;20280;-76
2023/01/06 10:06:06;;;;;;;1.80;0.70;;;16.80;58.70;;;;;;5065080;28;20017;-76
2023/01/06 10:08:54;;;;;;;4.95;2.03;;;16.90;58.60;;;;;;5066212;28;20027;-76
2023/01/06 10:11:25;;;;;;;3.45;1.17;;;17.00;59.10;;;;;;5067487;28;20013;-73
2023/01/06 10:14:03;;;;;;;5.55;1.20;;;17.00;58.40;;;;;;5070446;28;20020;-73
2023/01/06 10:17:00;;;;;;;3.42;1.92;;;17.00;58.10;;;;;;5071026;28;20102;-70
2023/01/06 10:19:35;;;;;;;1.75;0.85;;;17.10;57.90;;;;;;5072282;28;20048;-72
2023/01/06 10:22:16;;;;;;;4.65;0.98;;;17.10;57.80;;;;;;5072550;28;20021;-70
2023/01/06 10:24:48;;;;;;;1.83;1.05;;;17.10;57.80;;;;;;5072705;28;20025;-70
2023/01/06 10:27:34;;;;;;;3.63;0.93;;;17.10;57.80;;;;;;5072155;28;20107;-72
2023/01/06 10:30:03;;;;;;;5.32;1.60;;;17.10;57.80;;;;;;5071106;28;20037;-69
2023/01/06 10:32:33;;;;;;;2.30;1.08;;;17.10;57.90;;;;;;5070913;28;20047;-75
2023/01/06 10:35:00;;;;;;;2.65;1.30;;;17.10;57.90;;;;;;5071840;28;20020;-70
2023/01/06 10:37:47;;;;;;;3.90;1.30;;;17.10;57.90;;;;;;5070664;28;20048;-73
2023/01/06 10:40:25;;;;;;;2.85;1.15;;;17.10;57.90;;;;;;5071431;28;20027;-70
2023/01/06 10:43:01;;;;;;;1.90;0.97;;;17.00;57.90;;;;;;5071999;28;20036;-70
2023/01/06 10:45:28;;;;;;;5.60;1.33;;;17.10;57.90;;;;;;5071731;28;20017;-71
2023/01/06 10:47:55;;;;;;;4.43;1.60;;;17.00;57.90;;;;;;5070057;28;20239;-70
2023/01/06 10:50:21;;;;;;;1.80;1.05;;;17.00;57.90;;;;;;5070489;28;20016;-73
2023/01/06 10:52:48;;;;;;;2.13;1.20;;;17.00;58.00;;;;;;5070839;28;20024;-72
2023/01/06 10:55:31;;;;;;;1.85;0.82;;;17.00;58.00;;;;;;5070251;28;20017;-76
2023/01/06 10:58:04;;;;;;;3.28;0.88;;;17.00;57.90;;;;;;5069938;28;20031;-69
2023/01/06 11:00:31;;;;;;;3.45;1.58;;;17.00;57.90;;;;;;5070659;28;20032;-72
2023/01/06 11:03:05;;;;;;;3.00;1.25;;;17.00;57.90;;;;;;5069694;28;20017;-73
2023/01/06 11:05:33;;;;;;;3.63;0.93;;;17.00;57.90;;;;;;5070031;28;20312;-75
2023/01/06 11:08:18;;;;;;;3.15;1.13;;;17.00;57.80;;;;;;5070176;28;20036;-74
2023/01/06 11:10:52;;;;;;;1.45;0.98;;;17.00;57.90;;;;;;5070249;28;20040;-69
2023/01/06 11:13:29;;;;;;;18.90;2.72;;;17.10;57.90;;;;;;5066857;28;20021;-69
2023/01/06 11:15:55;;;;;;;23.33;3.13;;;17.00;57.90;;;;;;5065505;28;20021;-75
2023/01/06 11:18:26;;;;;;;28.35;3.83;;;17.00;55.20;;;;;;5062714;28;20194;-73
2023/01/06 11:21:10;;;;;;;33.95;4.22;;;16.80;55.50;;;;;;5062936;28;20251;-74
2023/01/06 11:23:38;;;;;;;25.02;2.30;;;16.80;56.90;;;;;;5063018;28;20024;-75
2023/01/06 11:26:19;;;;;;;27.17;3.63;;;16.80;57.50;;;;;;5061384;28;20029;-71
2023/01/06 11:28:53;;;;;;;13.93;1.92;;;16.80;57.60;;;;;;5061061;28;20052;-69
2023/01/06 11:31:22;;;;;;;20.55;2.63;;;16.90;57.60;;;;;;5061099;28;20457;-69
2023/01/06 11:33:50;;;;;;;21.60;2.05;;;16.90;57.60;;;;;;5059768;28;20067;-70
2023/01/06 11:36:17;;;;;;;13.60;2.25;;;16.90;57.70;;;;;;5060631;28;20045;-69
2023/01/06 11:38:58;;;;;;;8.00;2.00;;;16.90;57.70;;;;;;5060475;28;20029;-70
2023/01/06 11:41:31;;;;;;;12.57;1.98;;;16.90;57.70;;;;;;5057801;28;20020;-70
2023/01/06 11:44:08;;;;;;;17.02;2.50;;;16.90;57.70;;;;;;5047794;28;20033;-71
2023/01/06 11:46:36;;;;;;;19.33;2.70;;;16.90;57.70;;;;;;5059611;28;20020;-71
2023/01/06 11:49:09;;;;;;;11.20;2.08;;;16.90;57.70;;;;;;5062849;28;20029;-70
2023/01/06 11:51:41;;;;;;;6.63;2.15;;;16.90;57.70;;;;;;5064875;28;20053;-71
2023/01/06 11:54:21;;;;;;;9.02;1.95;;;16.90;57.70;;;;;;5063524;28;20344;-71
2023/01/06 11:57:15;;;;;;;7.57;1.73;;;16.90;57.70;;;;;;5063628;28;20033;-71
2023/01/06 11:59:56;;;;;;;15.88;2.55;;;16.90;57.70;;;;;;5055777;28;20017;-71
2023/01/06 12:02:36;;;;;;;14.20;3.05;;;17.00;59.60;;;;;;5064048;28;20051;-70
2023/01/06 12:05:08;;;;;;;6.03;1.33;;;17.00;58.10;;;;;;5062552;28;20031;-70
2023/01/06 12:07:43;;;;;;;9.55;2.92;;;17.00;57.90;;;;;;5064508;28;20024;-70
2023/01/06 12:10:17;;;;;;;14.13;2.95;;;17.00;58.40;;;;;;5064580;28;20013;-69
2023/01/06 12:12:43;;;;;;;10.30;1.75;;;16.90;57.90;;;;;;5064542;28;20033;-70
2023/01/06 12:15:15;;;;;;;15.13;2.42;;;17.00;57.90;;;;;;5064456;28;20081;-70
2023/01/06 12:18:24;;;;;;;10.13;2.20;;;17.00;57.90;;;;;;5064379;28;20029;-70
2023/01/06 12:20:51;;;;;;;10.48;2.17;;;17.00;58.00;;;;;;5064090;28;20480;-69
2023/01/06 12:23:27;;;;;;;11.45;1.98;;;17.00;58.10;;;;;;5063204;28;20029;-71
2023/01/06 12:25:59;;;;;;;10.73;2.05;;;17.00;58.20;;;;;;5064252;28;20025;-69
2023/01/06 12:28:38;;;;;;;7.60;2.63;;;17.00;58.80;;;;;;5062793;28;20041;-71
2023/01/06 12:31:14;;;;;;;8.60;2.08;;;17.00;58.40;;;;;;5062958;28;20020;-71
2023/01/06 12:34:01;;;;;;;11.40;1.85;;;17.00;58.20;;;;;;5064126;28;20260;-70
2023/01/06 12:36:55;;;;;;;7.55;2.97;;;17.00;58.20;;;;;;5064056;28;20021;-70
2023/01/06 12:39:41;;;;;;;11.48;2.70;;;17.00;58.30;;;;;;5064032;28;20029;-70
2023/01/06 12:42:25;;;;;;;16.48;3.45;;;17.10;58.20;;;;;;5064035;28;20040;-70
2023/01/06 12:44:57;;;;;;;12.48;2.08;;;17.10;58.20;;;;;;5063906;28;20271;-69
2023/01/06 12:47:53;;;;;;;5.25;1.75;;;17.10;58.20;;;;;;5060985;28;20041;-73
2023/01/06 12:50:24;;;;;;;13.45;1.73;;;17.10;58.20;;;;;;5034713;28;20096;-70
2023/01/06 12:53:00;;;;;;;15.10;2.13;;;17.10;58.10;;;;;;5047202;28;20025;-71
2023/01/06 12:56:00;;;;;;;10.40;2.40;;;17.10;58.20;;;;;;5063859;28;20025;-70
2023/01/06 12:58:45;;;;;;;9.70;1.95;;;17.10;58.30;;;;;;5062228;28;20099;-69
2023/01/06 13:01:42;;;;;;;6.18;1.70;;;17.10;58.20;;;;;;5066556;28;20087;-69
2023/01/06 13:04:29;;;;;;;16.20;2.08;;;17.10;58.20;;;;;;5053108;28;20100;-72
2023/01/06 13:07:25;;;;;;;6.18;1.98;;;17.10;58.30;;;;;;5052989;28;20131;-71
2023/01/06 13:09:59;;;;;;;3.20;1.48;;;17.10;58.30;;;;;;5061702;28;20020;-71
2023/01/06 13:12:37;;;;;;;8.60;2.25;;;17.10;58.30;;;;;;5063545;28;20339;-68